Terminal Aerodrome Forecast
Issued by NWS Paducah, KY

Home | Current Version | Previous Version | Text Only | Print | Product List | Glossary On
Versions: 1 2 3 4 5 6 7 8 9 10 11 12 13 14 15 16 17 18 19 20 21 22 23 24 25 26 27 28 29 30 31 32 33 34 35 36 37 38
895
FTUS43 KPAH 162112 AAA
TAFEVV
TAF AMD
KEVV 162112Z 1621/1718 VRB04KT P6SM BKN022
      TEMPO 1623/1703 BKN018
     FM170500 12004KT P6SM OVC022
     FM170800 13005KT 6SM BR OVC015
     FM171300 15006KT 3SM -RA BR OVC009
     FM171500 16007KT 2SM -RA BR OVC005
     FM171700 19007KT 5SM -RA BR OVC006=

USA.gov is the U.S. government's official web portal to all federal, state and local government web resources and services.